createdAt,value
2023-05-02T00:00:06.095Z,1.00
2023-05-02T00:01:09.007Z,1.00
2023-05-02T00:02:12.016Z,0.25
2023-05-02T00:03:15.221Z,0.00
2023-05-02T00:04:18.217Z,0.00
2023-05-02T00:05:21.624Z,0.00
2023-05-02T00:06:25.019Z,0.00
2023-05-02T00:07:28.234Z,1.50
2023-05-02T00:08:31.112Z,2.00
2023-05-02T00:09:34.066Z,2.00
2023-05-02T00:10:36.924Z,2.00
2023-05-02T00:11:40.059Z,2.00
2023-05-02T00:12:42.895Z,0.00
2023-05-02T00:13:46.050Z,1.00
2023-05-02T00:14:48.865Z,0.25
2023-05-02T00:15:51.773Z,0.00
2023-05-02T00:16:54.664Z,2.00
2023-05-02T00:17:57.555Z,1.00
2023-05-02T00:19:00.524Z,0.00
2023-05-02T00:20:05.722Z,1.00
2023-05-02T00:21:09.760Z,0.50
2023-05-02T00:22:12.581Z,2.00
2023-05-02T00:23:15.425Z,2.00
2023-05-02T00:24:19.596Z,1.00
2023-05-02T00:25:22.498Z,0.00
2023-05-02T00:26:25.438Z,0.00
2023-05-02T00:27:28.454Z,0.00
2023-05-02T00:28:31.304Z,1.00
2023-05-02T00:29:34.150Z,2.00
2023-05-02T00:30:38.116Z,2.00
2023-05-02T00:31:42.949Z,2.00
2023-05-02T00:32:46.424Z,1.75
2023-05-02T00:33:49.471Z,1.00
2023-05-02T00:34:52.356Z,0.75
2023-05-02T00:35:55.229Z,1.00
2023-05-02T00:36:58.958Z,1.00
2023-05-02T00:38:01.760Z,1.75
2023-05-02T00:39:05.538Z,2.00
2023-05-02T00:40:09.468Z,1.00
2023-05-02T00:41:12.533Z,1.50
2023-05-02T00:42:15.397Z,1.25
2023-05-02T00:43:18.448Z,1.00
2023-05-02T00:44:21.302Z,0.75
2023-05-02T00:45:24.327Z,0.25
2023-05-02T00:46:27.390Z,0.00
2023-05-02T00:47:30.418Z,1.25
2023-05-02T00:48:33.579Z,2.00
2023-05-02T00:49:36.467Z,2.00
2023-05-02T00:50:44.398Z,1.00
2023-05-02T00:51:47.636Z,0.25
2023-05-02T00:52:50.509Z,1.50
2023-05-02T00:53:54.282Z,1.00
2023-05-02T00:54:57.814Z,2.00
2023-05-02T00:56:01.104Z,2.00
2023-05-02T00:57:04.253Z,1.00
2023-05-02T00:58:12.250Z,1.75
2023-05-02T00:59:16.213Z,2.00
2023-05-02T01:00:20.252Z,1.00
2023-05-02T01:01:37.986Z,2.00
2023-05-02T01:03:16.168Z,3.00
2023-05-02T01:04:41.452Z,2.00
2023-05-02T01:06:21.655Z,1.75
2023-05-02T01:07:56.892Z,1.00
2023-05-02T01:09:37.173Z,0.75
2023-05-02T01:10:51.302Z,2.00
2023-05-02T01:12:00.160Z,2.00
2023-05-02T01:13:29.800Z,3.00
2023-05-02T01:14:36.584Z,3.00
2023-05-02T01:15:40.789Z,2.00
2023-05-02T01:16:46.960Z,2.50
2023-05-02T01:17:52.315Z,3.00
2023-05-02T01:18:56.077Z,3.00
2023-05-02T01:20:02.355Z,4.00
2023-05-02T01:21:09.668Z,3.00
2023-05-02T01:22:14.484Z,1.00
2023-05-02T01:23:27.498Z,3.00
2023-05-02T01:24:37.286Z,2.00
2023-05-02T01:26:04.842Z,3.75
2023-05-02T01:27:36.889Z,3.00
2023-05-02T01:29:00.318Z,3.50
2023-05-02T01:30:04.784Z,3.00
2023-05-02T01:31:08.534Z,1.00
2023-05-02T01:32:15.570Z,2.00
2023-05-02T01:33:20.337Z,3.00
2023-05-02T01:34:24.560Z,2.00
2023-05-02T01:35:28.995Z,2.25
2023-05-02T01:36:34.635Z,3.50
2023-05-02T01:37:40.750Z,1.00
2023-05-02T01:38:44.964Z,3.00
2023-05-02T01:39:48.795Z,3.00
2023-05-02T01:40:52.940Z,2.75
2023-05-02T01:41:58.688Z,4.00
2023-05-02T01:43:05.541Z,3.25
2023-05-02T01:44:09.848Z,3.00
2023-05-02T01:45:14.355Z,4.00
2023-05-02T01:46:17.315Z,4.00
2023-05-02T01:47:22.574Z,3.00
2023-05-02T01:48:30.324Z,4.00
2023-05-02T01:49:35.030Z,3.00
2023-05-02T01:50:39.465Z,3.75
2023-05-02T01:51:47.343Z,2.50
2023-05-02T01:52:54.218Z,4.75
2023-05-02T01:53:58.022Z,3.75
2023-05-02T01:55:02.673Z,4.00
2023-05-02T01:56:06.152Z,3.00
2023-05-02T01:57:11.165Z,4.75
2023-05-02T01:58:16.207Z,3.00
2023-05-02T01:59:22.966Z,3.00
2023-05-02T02:00:27.410Z,4.00
2023-05-02T02:01:32.340Z,4.00
2023-05-02T02:02:37.184Z,5.75
2023-05-02T02:03:40.101Z,4.75
2023-05-02T02:04:43.646Z,4.00
2023-05-02T02:05:49.848Z,3.00
2023-05-02T02:06:59.184Z,4.00
2023-05-02T02:08:02.433Z,2.00
2023-05-02T02:09:05.344Z,3.50
2023-05-02T02:10:08.876Z,4.00
2023-05-02T02:11:14.638Z,5.25
2023-05-02T02:12:28.424Z,4.00
2023-05-02T02:13:45.137Z,4.00
2023-05-02T02:14:57.346Z,4.25
2023-05-02T02:16:03.341Z,4.00
2023-05-02T02:17:14.561Z,5.00
2023-05-02T02:18:24.403Z,4.00
2023-05-02T02:19:27.698Z,5.00
2023-05-02T02:20:31.678Z,5.00
2023-05-02T02:21:37.284Z,5.00
2023-05-02T02:22:42.475Z,4.00
2023-05-02T02:23:49.227Z,4.00
2023-05-02T02:24:54.889Z,4.00
2023-05-02T02:25:59.096Z,5.00
2023-05-02T02:27:01.951Z,4.00
2023-05-02T02:28:04.988Z,3.50
2023-05-02T02:29:07.958Z,5.50
2023-05-02T02:30:12.061Z,4.00
2023-05-02T02:31:15.006Z,4.00
2023-05-02T02:32:17.880Z,5.00
2023-05-02T02:33:22.169Z,4.00
2023-05-02T02:34:27.857Z,5.00
2023-05-02T02:35:39.348Z,4.00
2023-05-02T02:36:53.040Z,4.75
2023-05-02T02:38:15.941Z,4.00
2023-05-02T02:39:41.758Z,4.75
2023-05-02T02:40:56.272Z,5.00
2023-05-02T02:42:02.407Z,6.00
2023-05-02T02:43:14.873Z,7.00
2023-05-02T02:44:35.672Z,5.25
2023-05-02T02:45:47.243Z,6.00
2023-05-02T02:47:13.405Z,4.25
2023-05-02T02:48:38.609Z,5.00
2023-05-02T02:49:52.195Z,6.00
2023-05-02T02:51:03.805Z,3.25
2023-05-02T02:52:22.434Z,4.00
2023-05-02T02:53:36.310Z,6.00
2023-05-02T02:54:44.946Z,4.50
2023-05-02T02:56:06.782Z,5.00
2023-05-02T02:57:29.694Z,5.00
2023-05-02T02:58:52.304Z,5.50
2023-05-02T03:00:10.008Z,5.00
2023-05-02T03:01:18.388Z,5.75
2023-05-02T03:02:28.635Z,5.00
2023-05-02T03:03:34.477Z,4.50
2023-05-02T03:04:40.177Z,6.00
2023-05-02T03:05:45.732Z,5.00
2023-05-02T03:06:48.924Z,5.75
2023-05-02T03:07:52.674Z,6.25
2023-05-02T03:08:55.569Z,6.00
2023-05-02T03:09:58.825Z,5.50
2023-05-02T03:11:01.806Z,7.50
2023-05-02T03:12:05.144Z,6.00
2023-05-02T03:13:07.966Z,5.00
2023-05-02T03:14:10.783Z,6.00
2023-05-02T03:15:25.474Z,5.00
2023-05-02T03:16:39.049Z,7.00
2023-05-02T03:17:42.027Z,7.00
2023-05-02T03:18:45.091Z,5.00
2023-05-02T03:19:48.636Z,5.00
2023-05-02T03:20:51.557Z,5.00
2023-05-02T03:21:54.473Z,5.00
2023-05-02T03:22:57.245Z,6.00
2023-05-02T03:24:01.587Z,6.75
2023-05-02T03:25:04.891Z,6.00
2023-05-02T03:26:08.217Z,6.00
2023-05-02T03:27:11.090Z,6.75
2023-05-02T03:28:13.925Z,5.00
2023-05-02T03:29:17.505Z,8.00
2023-05-02T03:30:20.406Z,6.00
2023-05-02T03:31:26.248Z,7.50
2023-05-02T03:32:29.721Z,6.00
2023-05-02T03:33:32.968Z,6.75
2023-05-02T03:34:36.038Z,6.00
2023-05-02T03:35:49.610Z,5.00
2023-05-02T03:36:52.553Z,6.00
2023-05-02T03:37:55.467Z,5.00
2023-05-02T03:38:58.496Z,6.75
2023-05-02T03:40:01.562Z,7.00
2023-05-02T03:41:05.424Z,7.00
2023-05-02T03:42:08.320Z,6.25
2023-05-02T03:43:11.156Z,7.00
2023-05-02T03:44:14.066Z,7.00
2023-05-02T03:45:17.054Z,7.00
2023-05-02T03:46:19.905Z,5.25
2023-05-02T03:47:22.820Z,6.00
2023-05-02T03:48:25.709Z,5.00
2023-05-02T03:49:28.549Z,5.50
2023-05-02T03:50:31.433Z,7.25
2023-05-02T03:51:35.156Z,8.00
2023-05-02T03:52:37.982Z,6.50
2023-05-02T03:53:40.809Z,6.75
2023-05-02T03:54:44.953Z,7.00
2023-05-02T03:55:51.169Z,6.75
2023-05-02T03:56:55.858Z,6.00
2023-05-02T03:57:58.740Z,6.75
2023-05-02T03:59:01.572Z,7.75
2023-05-02T04:00:05.070Z,7.00
2023-05-02T04:01:16.526Z,5.00
2023-05-02T04:02:19.453Z,7.00
2023-05-02T04:03:23.234Z,5.75
2023-05-02T04:04:26.193Z,5.00
2023-05-02T04:05:29.057Z,7.50
2023-05-02T04:06:33.351Z,7.00
2023-05-02T04:07:36.893Z,8.00
2023-05-02T04:08:40.119Z,7.75
2023-05-02T04:09:42.966Z,6.75
2023-05-02T04:10:45.762Z,6.50
2023-05-02T04:11:48.794Z,6.00
2023-05-02T04:12:51.774Z,8.25
2023-05-02T04:13:54.606Z,7.50
2023-05-02T04:14:57.524Z,7.00
2023-05-02T04:16:00.347Z,8.00
2023-05-02T04:17:03.373Z,4.25
2023-05-02T04:18:06.319Z,7.00
2023-05-02T04:19:09.170Z,7.00
2023-05-02T04:20:12.870Z,6.25
2023-05-02T04:21:15.800Z,6.25
2023-05-02T04:22:18.654Z,8.25
2023-05-02T04:23:21.681Z,6.25
2023-05-02T04:24:24.509Z,5.50
2023-05-02T04:25:27.448Z,7.75
2023-05-02T04:26:30.292Z,6.50
2023-05-02T04:27:33.221Z,6.00
2023-05-02T04:28:37.063Z,5.00
2023-05-02T04:29:39.938Z,8.00
2023-05-02T04:30:42.800Z,6.00
2023-05-02T04:31:45.995Z,7.00
2023-05-02T04:32:48.925Z,7.00
2023-05-02T04:33:51.937Z,9.00
2023-05-02T04:34:54.837Z,9.00
2023-05-02T04:35:58.165Z,10.00
2023-05-02T04:37:03.021Z,7.25
2023-05-02T04:38:05.855Z,7.25
2023-05-02T04:39:09.160Z,7.25
2023-05-02T04:40:12.818Z,9.00
2023-05-02T04:41:16.396Z,7.75
2023-05-02T04:42:19.236Z,6.00
2023-05-02T04:43:24.607Z,6.50
2023-05-02T04:44:27.985Z,7.75
2023-05-02T04:45:30.867Z,9.00
2023-05-02T04:46:33.835Z,7.50
2023-05-02T04:47:39.605Z,7.00
2023-05-02T04:48:43.485Z,4.00
2023-05-02T04:49:46.303Z,7.75
2023-05-02T04:50:49.141Z,7.75
2023-05-02T04:51:53.950Z,7.00
2023-05-02T04:53:03.001Z,9.50
2023-05-02T04:54:05.891Z,7.00
2023-05-02T04:55:09.333Z,6.00
2023-05-02T04:56:12.685Z,6.50
2023-05-02T04:57:16.412Z,7.25
2023-05-02T04:58:19.325Z,6.00
2023-05-02T04:59:22.637Z,7.50
2023-05-02T05:00:25.606Z,6.00
2023-05-02T05:01:31.333Z,9.50
2023-05-02T05:02:34.557Z,6.00
2023-05-02T05:03:38.047Z,5.75
2023-05-02T05:04:41.061Z,6.00
2023-05-02T05:05:43.971Z,8.00
2023-05-02T05:06:48.814Z,7.25
2023-05-02T05:07:54.039Z,7.00
2023-05-02T05:08:57.208Z,7.00
2023-05-02T05:10:00.728Z,8.00
2023-05-02T05:11:03.797Z,7.00
2023-05-02T05:12:06.751Z,6.00
2023-05-02T05:13:09.624Z,7.00
2023-05-02T05:14:13.182Z,7.00
2023-05-02T05:15:16.532Z,9.00
2023-05-02T05:16:19.557Z,8.00
2023-05-02T05:17:23.008Z,10.00
2023-05-02T05:18:25.928Z,8.00
2023-05-02T05:19:29.222Z,7.25
2023-05-02T05:20:32.053Z,8.00
2023-05-02T05:21:35.077Z,8.00
2023-05-02T05:22:41.445Z,9.00
2023-05-02T05:23:47.233Z,8.00
2023-05-02T05:24:56.344Z,8.50
2023-05-02T05:25:59.390Z,8.00
2023-05-02T05:27:02.253Z,8.00
2023-05-02T05:28:05.125Z,7.00
2023-05-02T05:29:08.963Z,7.00
2023-05-02T05:30:12.373Z,8.25
2023-05-02T05:31:19.370Z,7.50
2023-05-02T05:32:23.625Z,6.00
2023-05-02T05:33:26.713Z,10.00
2023-05-02T05:34:29.598Z,9.00
2023-05-02T05:35:34.108Z,8.25
2023-05-02T05:36:37.441Z,8.00
2023-05-02T05:37:41.118Z,8.00
2023-05-02T05:38:44.322Z,5.00
2023-05-02T05:39:47.256Z,7.50
2023-05-02T05:40:52.253Z,7.25
2023-05-02T05:41:55.920Z,7.75
2023-05-02T05:42:58.758Z,8.00
2023-05-02T05:44:01.570Z,7.00
2023-05-02T05:45:04.536Z,9.00
2023-05-02T05:46:07.401Z,7.00
2023-05-02T05:47:10.407Z,9.00
2023-05-02T05:48:13.646Z,8.00
2023-05-02T05:49:19.621Z,7.75
2023-05-02T05:50:22.556Z,7.50
2023-05-02T05:51:25.628Z,7.00
2023-05-02T05:52:28.922Z,8.00
2023-05-02T05:53:32.027Z,8.00
2023-05-02T05:54:34.915Z,9.00
2023-05-02T05:55:41.523Z,7.75
2023-05-02T05:56:45.519Z,6.75
2023-05-02T05:57:48.433Z,10.00
2023-05-02T05:58:51.331Z,8.00
2023-05-02T05:59:54.275Z,8.00
2023-05-02T06:00:57.216Z,7.00
2023-05-02T06:02:00.820Z,11.00
2023-05-02T06:03:06.612Z,9.00
2023-05-02T06:04:11.113Z,9.00
2023-05-02T06:05:14.291Z,9.00
2023-05-02T06:06:17.222Z,9.00
2023-05-02T06:07:20.074Z,7.00
2023-05-02T06:08:22.979Z,7.00
2023-05-02T06:09:25.857Z,8.00
2023-05-02T06:10:28.982Z,7.00
2023-05-02T06:11:31.912Z,9.50
2023-05-02T06:12:34.722Z,8.00
2023-05-02T06:13:37.576Z,7.00
2023-05-02T06:14:40.405Z,10.00
2023-05-02T06:15:43.404Z,8.00
2023-05-02T06:16:46.380Z,8.00
2023-05-02T06:17:49.266Z,10.25
2023-05-02T06:18:54.187Z,10.25
2023-05-02T06:19:57.086Z,9.00
2023-05-02T06:21:04.592Z,8.00
2023-05-02T06:22:07.483Z,8.00
2023-05-02T06:23:10.365Z,8.50
2023-05-02T06:24:13.166Z,9.00
2023-05-02T06:25:16.105Z,7.50
2023-05-02T06:26:19.019Z,10.00
2023-05-02T06:27:21.858Z,9.00
2023-05-02T06:28:24.708Z,10.00
2023-05-02T06:29:27.588Z,10.75
2023-05-02T06:30:30.443Z,10.00
2023-05-02T06:31:33.391Z,12.00
2023-05-02T06:32:36.334Z,8.00
2023-05-02T06:33:39.323Z,8.00
2023-05-02T06:34:42.249Z,8.25
2023-05-02T06:35:45.115Z,7.25
2023-05-02T06:36:48.020Z,7.50
2023-05-02T06:37:50.849Z,9.00
2023-05-02T06:38:53.642Z,9.75
2023-05-02T06:39:56.456Z,9.00
2023-05-02T06:40:59.387Z,8.50
2023-05-02T06:42:02.759Z,8.00
2023-05-02T06:43:06.705Z,8.00
2023-05-02T06:44:09.725Z,8.25
2023-05-02T06:45:12.820Z,6.50
2023-05-02T06:46:15.840Z,9.00
2023-05-02T06:47:18.897Z,8.50
2023-05-02T06:48:22.819Z,7.00
2023-05-02T06:49:27.720Z,9.25
2023-05-02T06:50:30.960Z,9.00
2023-05-02T06:51:33.810Z,8.00
2023-05-02T06:52:36.848Z,9.00
2023-05-02T06:53:39.700Z,7.00
2023-05-02T06:54:43.661Z,7.50
2023-05-02T06:55:47.593Z,8.00
2023-05-02T06:56:50.642Z,8.25
2023-05-02T06:57:53.809Z,7.75
2023-05-02T06:58:56.686Z,8.50
2023-05-02T06:59:59.992Z,9.00
2023-05-02T07:01:03.036Z,9.00
2023-05-02T07:02:05.958Z,8.25
2023-05-02T07:03:08.843Z,8.00
2023-05-02T07:04:11.776Z,12.75
2023-05-02T07:05:16.872Z,9.50
2023-05-02T07:06:20.106Z,8.75
2023-05-02T07:07:23.437Z,8.50
2023-05-02T07:08:26.290Z,7.25
2023-05-02T07:09:29.277Z,8.00
2023-05-02T07:10:32.556Z,7.00
2023-05-02T07:11:35.523Z,8.50
2023-05-02T07:12:39.678Z,7.75
2023-05-02T07:13:42.572Z,9.00
2023-05-02T07:14:48.083Z,6.25
2023-05-02T07:15:50.954Z,11.00
2023-05-02T07:16:55.111Z,11.75
2023-05-02T07:17:58.051Z,9.00
2023-05-02T07:19:01.430Z,10.00
2023-05-02T07:20:05.150Z,8.00
2023-05-02T07:21:08.310Z,9.00
2023-05-02T07:22:12.303Z,12.00
2023-05-02T07:23:15.150Z,11.00
2023-05-02T07:24:17.981Z,9.75
2023-05-02T07:25:20.902Z,7.00
2023-05-02T07:26:24.772Z,9.00
2023-05-02T07:27:27.675Z,7.50
2023-05-02T07:28:30.533Z,7.75
2023-05-02T07:29:33.336Z,6.75
2023-05-02T07:30:36.345Z,7.75
2023-05-02T07:31:39.747Z,12.00
2023-05-02T07:32:42.753Z,7.75
2023-05-02T07:33:45.745Z,10.00
2023-05-02T07:34:49.266Z,9.00
2023-05-02T07:35:53.290Z,7.50
2023-05-02T07:36:56.119Z,7.50
2023-05-02T07:37:58.976Z,9.00
2023-05-02T07:39:01.847Z,8.25
2023-05-02T07:40:05.200Z,8.00
2023-05-02T07:41:08.003Z,6.00
2023-05-02T07:42:11.306Z,7.00
2023-05-02T07:43:15.074Z,7.50
2023-05-02T07:44:17.872Z,9.00
2023-05-02T07:45:20.814Z,8.00
2023-05-02T07:46:23.831Z,7.00
2023-05-02T07:47:27.999Z,8.00
2023-05-02T07:48:31.578Z,7.00
2023-05-02T07:49:34.457Z,7.00
2023-05-02T07:50:37.385Z,9.00
2023-05-02T07:51:41.195Z,8.25
2023-05-02T07:52:44.080Z,9.00
2023-05-02T07:53:47.187Z,10.00
2023-05-02T07:54:51.062Z,6.50
2023-05-02T07:55:55.056Z,8.00
2023-05-02T07:57:00.048Z,9.50
2023-05-02T07:58:02.999Z,8.25
2023-05-02T07:59:05.960Z,8.50
2023-05-02T08:00:11.372Z,7.25
2023-05-02T08:01:14.207Z,7.00
2023-05-02T08:02:18.974Z,7.00
2023-05-02T08:03:22.045Z,6.00
2023-05-02T08:04:25.208Z,8.50
2023-05-02T08:05:28.253Z,8.25
2023-05-02T08:06:32.145Z,9.00
2023-05-02T08:07:37.326Z,7.25
2023-05-02T08:08:40.318Z,10.00
2023-05-02T08:09:43.197Z,8.25
2023-05-02T08:10:46.705Z,7.00
2023-05-02T08:11:49.603Z,8.00
2023-05-02T08:12:52.531Z,9.25
2023-05-02T08:13:56.187Z,9.00
2023-05-02T08:14:59.088Z,7.00
2023-05-02T08:16:02.060Z,6.75
2023-05-02T08:17:04.955Z,8.00
2023-05-02T08:18:08.382Z,8.00
2023-05-02T08:19:11.963Z,8.50
2023-05-02T08:20:14.977Z,8.00
2023-05-02T08:21:18.164Z,8.00
2023-05-02T08:22:20.982Z,9.00
2023-05-02T08:23:23.888Z,8.00
2023-05-02T08:24:26.916Z,9.00
2023-05-02T08:25:31.275Z,8.00
2023-05-02T08:26:34.216Z,8.00
2023-05-02T08:27:37.171Z,9.00
2023-05-02T08:28:40.050Z,10.00
2023-05-02T08:29:42.898Z,9.00
2023-05-02T08:32:02.379Z,5.75
2023-05-02T08:33:05.475Z,6.75
2023-05-02T08:34:08.476Z,8.75
2023-05-02T08:35:11.490Z,8.00
2023-05-02T08:36:18.341Z,8.00
2023-05-02T08:37:21.252Z,9.50
2023-05-02T08:38:24.134Z,9.50
2023-05-02T08:39:26.965Z,13.50
2023-05-02T08:40:40.855Z,15.00
2023-05-02T08:41:46.161Z,16.00
2023-05-02T08:42:49.387Z,13.50
2023-05-02T08:43:52.270Z,9.25
2023-05-02T08:44:55.330Z,8.00
2023-05-02T08:46:03.256Z,8.25
2023-05-02T08:47:08.204Z,8.00
2023-05-02T08:48:12.994Z,8.00
2023-05-02T08:49:18.075Z,7.00
2023-05-02T08:50:21.918Z,8.50
2023-05-02T08:51:25.988Z,10.00
2023-05-02T08:52:29.404Z,14.50
2023-05-02T08:53:35.576Z,11.50
2023-05-02T08:54:40.113Z,7.00
2023-05-02T08:55:44.105Z,6.50
2023-05-02T08:56:47.632Z,6.00
2023-05-02T08:57:51.239Z,8.00
2023-05-02T08:58:54.141Z,8.00
2023-05-02T08:59:57.045Z,8.00
2023-05-02T09:01:04.143Z,8.00
2023-05-02T09:02:19.433Z,8.00
2023-05-02T09:03:35.706Z,6.75
2023-05-02T09:04:43.277Z,8.00
2023-05-02T09:05:54.568Z,8.00
2023-05-02T09:06:57.390Z,11.25
2023-05-02T09:08:00.233Z,10.75
2023-05-02T09:09:03.182Z,10.00
2023-05-02T09:10:08.583Z,10.25
2023-05-02T09:11:12.597Z,8.00
2023-05-02T09:12:16.187Z,11.00
2023-05-02T09:13:37.716Z,9.00
2023-05-02T09:14:40.618Z,10.00
2023-05-02T09:15:43.609Z,15.00
2023-05-02T09:16:46.756Z,14.00
2023-05-02T09:17:50.096Z,16.50
2023-05-02T09:18:55.316Z,14.00
2023-05-02T09:20:02.691Z,8.00
2023-05-02T09:21:11.410Z,7.75
2023-05-02T09:22:24.501Z,10.75
2023-05-02T09:23:53.437Z,12.50
2023-05-02T09:24:56.875Z,13.75
2023-05-02T09:26:00.415Z,15.00
2023-05-02T09:27:05.675Z,11.50
2023-05-02T09:28:08.747Z,8.75
2023-05-02T09:29:11.610Z,7.00
2023-05-02T09:30:40.938Z,6.75
2023-05-02T09:32:35.187Z,9.00
2023-05-02T09:33:40.000Z,7.75
2023-05-02T09:35:05.850Z,7.25
2023-05-02T09:36:11.228Z,7.50
2023-05-02T09:37:37.285Z,4.75
2023-05-02T09:38:40.221Z,7.00
2023-05-02T09:39:43.087Z,6.00
2023-05-02T09:40:58.194Z,6.75
2023-05-02T09:42:10.564Z,5.25
2023-05-02T09:43:20.316Z,8.00
2023-05-02T09:44:27.922Z,5.25
2023-05-02T09:45:30.782Z,6.00
2023-05-02T09:46:48.929Z,6.25
2023-05-02T09:47:52.957Z,6.00
2023-05-02T09:48:57.505Z,10.75
2023-05-02T09:50:00.359Z,7.00
2023-05-02T09:51:03.453Z,5.00
2023-05-02T09:52:14.154Z,5.00
2023-05-02T09:53:19.971Z,4.25
2023-05-02T09:54:38.665Z,4.00
2023-05-02T09:55:41.507Z,5.00
2023-05-02T09:56:57.989Z,4.00
2023-05-02T09:58:02.283Z,6.00
2023-05-02T09:59:18.560Z,8.00
2023-05-02T10:00:21.572Z,7.00
2023-05-02T10:01:24.551Z,4.00
2023-05-02T10:02:28.030Z,6.00
2023-05-02T10:03:31.101Z,7.00
2023-05-02T10:04:35.320Z,7.00
2023-05-02T10:05:40.241Z,5.00
2023-05-02T10:06:48.162Z,5.00
2023-05-02T10:07:51.106Z,5.50
2023-05-02T10:08:54.181Z,7.75
2023-05-02T10:10:01.085Z,6.00
2023-05-02T10:11:08.469Z,6.00
2023-05-02T10:12:11.377Z,6.00
2023-05-02T10:13:15.645Z,5.50
2023-05-02T10:14:22.296Z,4.50
2023-05-02T10:15:29.551Z,6.00
2023-05-02T10:16:35.574Z,4.00
2023-05-02T10:17:46.064Z,5.00
2023-05-02T10:19:08.658Z,6.25
2023-05-02T10:20:17.556Z,6.25
2023-05-02T10:21:28.763Z,6.00
2023-05-02T10:22:33.069Z,7.00
2023-05-02T10:23:36.231Z,7.75
2023-05-02T10:24:41.278Z,7.00
2023-05-02T10:25:44.758Z,6.00
2023-05-02T10:26:48.674Z,7.00
2023-05-02T10:27:52.063Z,7.00
2023-05-02T10:28:57.523Z,5.75
2023-05-02T10:30:01.822Z,7.00
2023-05-02T10:31:06.760Z,5.00
2023-05-02T10:32:11.070Z,6.00
2023-05-02T10:33:15.736Z,6.50
2023-05-02T10:34:20.327Z,8.00
2023-05-02T10:35:25.808Z,8.50
2023-05-02T10:36:29.812Z,6.00
2023-05-02T10:37:37.616Z,7.25
2023-05-02T10:38:41.352Z,7.00
2023-05-02T10:39:44.299Z,7.00
2023-05-02T10:41:13.620Z,6.25
2023-05-02T10:42:16.841Z,6.00
2023-05-02T10:43:19.794Z,6.00
2023-05-02T10:44:42.418Z,7.75
2023-05-02T10:45:45.348Z,5.25
2023-05-02T10:46:48.986Z,7.75
2023-05-02T10:47:52.440Z,7.00
2023-05-02T10:49:11.679Z,6.00
2023-05-02T10:50:14.540Z,5.00
2023-05-02T10:51:29.681Z,7.50
2023-05-02T10:52:35.590Z,5.00
2023-05-02T10:53:40.861Z,7.00
2023-05-02T10:54:43.717Z,7.00
2023-05-02T10:55:46.709Z,6.00
2023-05-02T10:57:04.567Z,6.50
2023-05-02T10:58:07.503Z,7.00
2023-05-02T10:59:50.616Z,6.25
2023-05-02T11:00:53.661Z,7.00
2023-05-02T11:01:56.843Z,8.00
2023-05-02T11:02:59.830Z,7.00
2023-05-02T11:04:05.775Z,7.00
2023-05-02T11:05:09.602Z,6.00
2023-05-02T11:06:12.847Z,6.00
2023-05-02T11:07:15.666Z,6.00
2023-05-02T11:08:20.415Z,6.00
2023-05-02T11:09:25.070Z,7.50
2023-05-02T11:10:28.752Z,7.00
2023-05-02T11:11:47.252Z,7.00
2023-05-02T11:12:50.949Z,6.75
2023-05-02T11:13:53.862Z,5.00
2023-05-02T11:14:57.545Z,5.00
2023-05-02T11:16:01.166Z,7.00
2023-05-02T11:17:06.588Z,6.75
2023-05-02T11:18:11.071Z,5.00
2023-05-02T11:19:14.005Z,7.00
2023-05-02T11:20:16.920Z,6.00
2023-05-02T11:21:30.084Z,6.50
2023-05-02T11:22:34.489Z,7.75
2023-05-02T11:23:38.166Z,8.00
2023-05-02T11:24:42.980Z,5.75
2023-05-02T11:25:47.999Z,8.00
2023-05-02T11:26:51.079Z,5.25
2023-05-02T11:27:53.921Z,7.00
2023-05-02T11:28:56.911Z,6.00
2023-05-02T11:30:06.165Z,6.75
2023-05-02T11:31:32.342Z,6.00
2023-05-02T11:32:50.808Z,7.00
2023-05-02T11:34:00.723Z,6.00
2023-05-02T11:35:03.757Z,6.25
2023-05-02T11:36:07.065Z,5.75
2023-05-02T11:37:14.667Z,8.00
2023-05-02T11:38:19.046Z,7.00
2023-05-02T11:39:25.458Z,7.00
2023-05-02T11:40:29.700Z,5.75
2023-05-02T11:41:44.990Z,4.00
2023-05-02T11:42:48.784Z,4.00
2023-05-02T11:44:04.767Z,5.00
2023-05-02T11:45:08.099Z,5.00
2023-05-02T11:46:11.080Z,4.75
2023-05-02T11:47:13.968Z,3.00
2023-05-02T11:48:21.962Z,4.00
2023-05-02T11:49:25.029Z,4.00
2023-05-02T11:50:31.552Z,6.00
2023-05-02T11:51:34.666Z,5.00
2023-05-02T11:52:43.079Z,4.00
2023-05-02T11:53:49.242Z,4.00
2023-05-02T11:54:56.743Z,4.25
2023-05-02T11:56:02.345Z,6.00
2023-05-02T11:57:05.217Z,4.25
2023-05-02T11:58:14.158Z,4.50
2023-05-02T11:59:17.051Z,5.25
2023-05-02T12:00:20.123Z,4.25
2023-05-02T12:01:22.991Z,3.00
2023-05-02T12:02:40.357Z,4.00
2023-05-02T12:03:43.796Z,4.00
2023-05-02T12:04:47.046Z,4.00
2023-05-02T12:05:50.291Z,6.00
2023-05-02T12:06:58.184Z,4.00
2023-05-02T12:08:02.613Z,5.50
2023-05-02T12:09:21.595Z,5.75
2023-05-02T12:10:24.731Z,5.00
2023-05-02T12:11:27.678Z,6.00
2023-05-02T12:12:30.615Z,5.00
2023-05-02T12:13:33.739Z,5.00
2023-05-02T12:14:39.251Z,6.00
2023-05-02T12:15:42.787Z,7.00
2023-05-02T12:16:46.053Z,6.00
2023-05-02T12:17:50.559Z,5.00
2023-05-02T12:18:53.658Z,6.00
2023-05-02T12:19:56.703Z,3.25
2023-05-02T12:20:59.616Z,4.50
2023-05-02T12:22:02.678Z,5.00
2023-05-02T12:23:08.239Z,5.75
2023-05-02T12:24:12.210Z,6.00
2023-05-02T12:25:15.269Z,4.00
2023-05-02T12:26:30.852Z,3.00
2023-05-02T12:27:34.729Z,5.50
2023-05-02T12:28:50.743Z,6.00
2023-05-02T12:29:53.668Z,6.00
2023-05-02T12:30:56.522Z,5.00
2023-05-02T12:32:01.301Z,4.00
2023-05-02T12:33:04.588Z,5.00
2023-05-02T12:34:07.590Z,6.00
2023-05-02T12:35:24.109Z,6.75
2023-05-02T12:36:29.825Z,6.00
2023-05-02T12:37:32.706Z,7.00
2023-05-02T12:38:35.757Z,6.75
2023-05-02T12:39:44.138Z,6.00
2023-05-02T12:40:59.473Z,5.00
2023-05-02T12:42:11.144Z,7.00
2023-05-02T12:43:14.069Z,7.00
2023-05-02T12:44:16.999Z,9.00
2023-05-02T12:45:20.073Z,7.75
2023-05-02T12:46:23.013Z,5.25
2023-05-02T12:47:26.073Z,5.50
2023-05-02T12:48:29.536Z,7.00
2023-05-02T12:49:32.740Z,6.50
2023-05-02T12:50:41.841Z,7.50
2023-05-02T12:51:55.962Z,7.50
2023-05-02T12:53:00.578Z,8.00
2023-05-02T12:54:03.978Z,9.00
2023-05-02T12:55:20.454Z,6.75
2023-05-02T12:56:24.112Z,7.00
2023-05-02T12:57:27.727Z,7.75
2023-05-02T12:58:30.852Z,7.00
2023-05-02T12:59:33.784Z,6.00
2023-05-02T13:00:41.787Z,7.00
2023-05-02T13:01:46.781Z,7.00
2023-05-02T13:02:49.754Z,7.00
2023-05-02T13:03:52.858Z,8.00
2023-05-02T13:04:55.793Z,7.50
2023-05-02T13:05:58.649Z,8.00
2023-05-02T13:07:02.351Z,6.00
2023-05-02T13:08:05.483Z,6.75
2023-05-02T13:09:08.525Z,8.00
2023-05-02T13:10:12.644Z,6.00
2023-05-02T13:11:16.068Z,6.00
2023-05-02T13:12:19.652Z,6.00
2023-05-02T13:13:24.952Z,6.75
2023-05-02T13:14:27.810Z,8.25
2023-05-02T13:15:30.686Z,6.00
2023-05-02T13:16:35.087Z,9.00
2023-05-02T13:17:38.242Z,8.00
2023-05-02T13:18:41.134Z,7.00
2023-05-02T13:19:50.534Z,8.00
2023-05-02T13:20:53.672Z,7.00
2023-05-02T13:21:56.771Z,7.00
2023-05-02T13:22:59.617Z,7.00
2023-05-02T13:24:03.203Z,5.00
2023-05-02T13:25:08.072Z,7.00
2023-05-02T13:26:10.895Z,8.50
2023-05-02T13:27:13.824Z,7.00
2023-05-02T13:28:16.749Z,7.00
2023-05-02T13:29:19.598Z,4.00
2023-05-02T13:30:22.421Z,6.00
2023-05-02T13:31:25.326Z,7.00
2023-05-02T13:32:28.533Z,8.25
2023-05-02T13:33:31.415Z,9.25
2023-05-02T13:34:34.253Z,8.00
2023-05-02T13:35:37.126Z,6.00
2023-05-02T13:36:47.171Z,6.00
2023-05-02T13:37:50.165Z,8.00
2023-05-02T13:38:53.057Z,7.25
2023-05-02T13:39:55.919Z,6.50
2023-05-02T13:40:58.844Z,8.25
2023-05-02T13:42:04.482Z,7.00
2023-05-02T13:43:08.799Z,8.75
2023-05-02T13:44:12.089Z,10.25
2023-05-02T13:45:15.857Z,9.00
2023-05-02T13:46:18.776Z,7.00
2023-05-02T13:47:22.912Z,8.00
2023-05-02T13:48:26.573Z,7.00
2023-05-02T13:49:29.647Z,8.00
2023-05-02T13:50:32.551Z,6.00
2023-05-02T13:51:35.470Z,6.50
2023-05-02T13:52:38.348Z,9.00
2023-05-02T13:53:41.146Z,7.00
2023-05-02T13:54:44.054Z,7.75
2023-05-02T13:55:47.033Z,9.00
2023-05-02T13:56:49.929Z,8.00
2023-05-02T13:57:52.842Z,6.00
2023-05-02T13:58:55.703Z,6.00
2023-05-02T13:59:58.601Z,9.00
2023-05-02T14:01:02.458Z,8.25
2023-05-02T14:02:05.352Z,8.00
2023-05-02T14:03:08.407Z,8.00
2023-05-02T14:04:11.591Z,8.00
2023-05-02T14:05:14.593Z,7.25
2023-05-02T14:06:17.832Z,5.00
2023-05-02T14:07:20.706Z,6.50
2023-05-02T14:08:23.544Z,10.00
2023-05-02T14:09:26.781Z,13.00
2023-05-02T14:10:29.651Z,10.75
2023-05-02T14:11:32.506Z,8.75
2023-05-02T14:12:35.333Z,8.00
2023-05-02T14:13:38.559Z,8.00
2023-05-02T14:14:41.549Z,10.00
2023-05-02T14:15:44.482Z,12.75
2023-05-02T14:16:49.631Z,14.25
2023-05-02T14:17:53.370Z,17.50
2023-05-02T14:18:56.272Z,15.75
2023-05-02T14:19:59.565Z,10.25
2023-05-02T14:21:02.707Z,9.00
2023-05-02T14:22:05.800Z,9.00
2023-05-02T14:23:08.787Z,9.00
2023-05-02T14:24:13.653Z,8.50
2023-05-02T14:25:17.056Z,9.00
2023-05-02T14:26:21.409Z,7.75
2023-05-02T14:27:24.667Z,7.75
2023-05-02T14:28:28.439Z,8.25
2023-05-02T14:29:31.347Z,8.75